Cerro, New Mexico
Current Conditions -  °F | °C
As of 12:55 AM on Saturday 20 Dec 2014 (Local Time) from KSKX Reporting Station
Clear Clear  
Wind Chill:   Ceiling: Unl
Heat Index: 14°   Visibility: 10mi
Dew Point:   Wind: 6mph
Humidity: 79%   Direction: 340°NNW
Pressure: 30.17"   Gusts: NA
Location:  36.75°N, 105.61°W
Report Text: KSKX 200755Z AUTO 34005KT 10SM CLR M10/M13 A3017 RMK AO1
Loading
Personal Weather Stations






























Interactive Weather Map New forecast layout! Learn more

10-Day Weather Forecast

Advertisements
Track Severe Weather on mobile